createdAt,value
2019-02-24T00:00:43.481Z,103764.45
2019-02-24T00:03:11.973Z,103761.99
2019-02-24T00:05:40.429Z,103752.39
2019-02-24T00:08:08.859Z,103755.66
2019-02-24T00:10:37.298Z,103747.03
2019-02-24T00:13:05.794Z,103739.48
2019-02-24T00:15:34.244Z,103754.64
2019-02-24T00:18:03.135Z,103740.72
2019-02-24T00:20:31.591Z,103735.60
2019-02-24T00:23:00.012Z,103729.30
2019-02-24T00:25:28.449Z,103735.81
2019-02-24T00:27:56.898Z,103738.31
2019-02-24T00:30:25.327Z,103735.05
2019-02-24T00:32:53.785Z,103736.39
2019-02-24T00:35:22.201Z,103735.72
2019-02-24T00:37:50.655Z,103734.59
2019-02-24T00:40:19.075Z,103727.34
2019-02-24T00:42:47.537Z,103730.09
2019-02-24T00:45:15.963Z,103735.59
2019-02-24T00:47:44.424Z,103734.79
2019-02-24T00:50:12.916Z,103739.00
2019-02-24T00:52:41.414Z,103736.22
2019-02-24T00:55:09.866Z,103746.87
2019-02-24T00:57:38.386Z,103742.59
2019-02-24T01:00:09.731Z,103746.42
2019-02-24T01:02:38.180Z,103750.51
2019-02-24T01:05:08.148Z,103745.73
2019-02-24T01:07:36.600Z,103746.94
2019-02-24T01:10:08.061Z,103745.89
2019-02-24T01:12:36.518Z,103743.83
2019-02-24T01:15:10.111Z,103737.48
2019-02-24T01:17:38.561Z,103733.34
2019-02-24T01:20:09.233Z,103730.78
2019-02-24T01:22:37.682Z,103735.14
2019-02-24T01:25:06.356Z,103721.51
2019-02-24T01:27:34.827Z,103729.83
2019-02-24T01:30:03.249Z,103729.72
2019-02-24T01:32:31.697Z,103732.72
2019-02-24T01:35:00.289Z,103740.42
2019-02-24T01:37:28.767Z,103732.13
2019-02-24T01:39:57.192Z,103734.41
2019-02-24T01:42:25.610Z,103725.14
2019-02-24T01:44:54.068Z,103719.30
2019-02-24T01:47:22.535Z,103717.97
2019-02-24T01:49:50.956Z,103717.87
2019-02-24T01:52:19.384Z,103712.30
2019-02-24T01:54:47.840Z,103716.49
2019-02-24T01:57:16.261Z,103718.08
2019-02-24T01:59:46.643Z,103722.84
2019-02-24T02:05:19.463Z,103725.07
2019-02-24T02:07:47.990Z,103726.14
2019-02-24T02:10:16.446Z,103724.91
2019-02-24T02:13:03.631Z,103728.15
2019-02-24T02:15:32.048Z,103721.22
2019-02-24T02:18:00.472Z,103719.03
2019-02-24T02:20:29.001Z,103719.30
2019-02-24T02:22:57.434Z,103731.30
2019-02-24T02:25:25.897Z,103720.75
2019-02-24T02:27:54.321Z,103722.64
2019-02-24T02:30:22.780Z,103720.83
2019-02-24T02:32:51.215Z,103719.45
2019-02-24T02:35:19.676Z,103729.34
2019-02-24T02:37:48.111Z,103729.25
2019-02-24T02:40:16.631Z,103728.61
2019-02-24T02:42:45.051Z,103727.17
2019-02-24T02:45:13.506Z,103730.73
2019-02-24T02:47:41.928Z,103738.77
2019-02-24T02:50:10.447Z,103735.64
2019-02-24T02:52:38.874Z,103741.60
2019-02-24T02:55:07.320Z,103741.73
2019-02-24T02:57:35.749Z,103745.52
2019-02-24T03:00:07.738Z,103754.33
2019-02-24T03:02:36.168Z,103748.69
2019-02-24T03:05:05.755Z,103746.89
2019-02-24T03:07:35.819Z,103746.86
2019-02-24T03:10:05.014Z,103742.28
2019-02-24T03:12:33.438Z,103734.19
2019-02-24T03:15:01.901Z,103740.39
2019-02-24T03:17:30.323Z,103737.09
2019-02-24T03:19:58.778Z,103728.28
2019-02-24T03:22:27.205Z,103731.45
2019-02-24T03:24:55.653Z,103734.87
2019-02-24T03:27:24.083Z,103722.99
2019-02-24T03:29:52.557Z,103723.27
2019-02-24T03:32:21.048Z,103718.41
2019-02-24T03:34:49.473Z,103731.47
2019-02-24T03:37:17.926Z,103732.89
2019-02-24T03:39:46.354Z,103731.00
2019-02-24T03:42:14.818Z,103729.17
2019-02-24T03:44:43.246Z,103729.48
2019-02-24T03:47:11.692Z,103720.92
2019-02-24T03:49:40.126Z,103720.28
2019-02-24T03:52:08.577Z,103714.12
2019-02-24T03:54:37.068Z,103716.39
2019-02-24T03:57:05.596Z,103718.04
2019-02-24T03:59:34.088Z,103717.05
2019-02-24T04:02:02.557Z,103717.84
2019-02-24T04:04:31.046Z,103729.17
2019-02-24T04:06:59.501Z,103731.55
2019-02-24T04:09:27.934Z,103731.78
2019-02-24T04:11:56.389Z,103730.20
2019-02-24T04:14:24.819Z,103724.01
2019-02-24T04:16:53.272Z,103727.23
2019-02-24T04:19:21.694Z,103722.66
2019-02-24T04:21:50.145Z,103720.39
2019-02-24T04:24:18.578Z,103711.65
2019-02-24T04:26:47.028Z,103717.78
2019-02-24T04:29:24.369Z,103717.63
2019-02-24T04:31:45.654Z,103714.66
2019-02-24T04:34:14.087Z,103714.39
2019-02-24T04:36:42.553Z,103711.00
2019-02-24T04:39:10.986Z,103714.52
2019-02-24T04:41:39.435Z,103716.64
2019-02-24T04:44:07.868Z,103712.38
2019-02-24T04:46:36.330Z,103710.98
2019-02-24T04:49:04.765Z,103707.83
2019-02-24T04:51:33.199Z,103699.59
2019-02-24T04:54:01.656Z,103693.80
2019-02-24T04:56:30.081Z,103695.06
2019-02-24T04:58:58.541Z,103697.18
2019-02-24T05:01:26.973Z,103692.70
2019-02-24T05:03:55.431Z,103684.92
2019-02-24T05:06:23.852Z,103681.55
2019-02-24T05:08:52.306Z,103683.80
2019-02-24T05:11:20.730Z,103681.06
2019-02-24T05:13:49.183Z,103677.89
2019-02-24T05:16:17.626Z,103672.55
2019-02-24T05:18:46.104Z,103671.70
2019-02-24T05:21:14.532Z,103666.81
2019-02-24T05:23:43.213Z,103663.59
2019-02-24T05:26:11.691Z,103665.61
2019-02-24T05:28:40.157Z,103668.75
2019-02-24T05:31:08.596Z,103666.17
2019-02-24T05:33:37.218Z,103661.69
2019-02-24T05:36:05.646Z,103657.70
2019-02-24T05:38:34.102Z,103660.37
2019-02-24T05:41:02.538Z,103662.36
2019-02-24T05:43:30.996Z,103665.31
2019-02-24T05:45:59.418Z,103664.55
2019-02-24T05:48:27.875Z,103668.91
2019-02-24T05:50:56.303Z,103670.19
2019-02-24T05:53:24.765Z,103663.25
2019-02-24T05:55:53.198Z,103661.41
2019-02-24T05:58:21.663Z,103660.76
2019-02-24T06:00:50.079Z,103656.87
2019-02-24T06:03:18.556Z,103658.61
2019-02-24T06:05:47.000Z,103655.38
2019-02-24T06:08:15.444Z,103658.17
2019-02-24T06:10:43.920Z,103658.17
2019-02-24T06:13:12.349Z,103655.91
2019-02-24T06:15:40.815Z,103671.56
2019-02-24T06:18:09.235Z,103667.91
2019-02-24T06:20:38.064Z,103665.02
2019-02-24T06:23:06.718Z,103675.90
2019-02-24T06:25:35.175Z,103679.93
2019-02-24T06:28:03.611Z,103676.70
2019-02-24T06:30:32.078Z,103671.68
2019-02-24T06:33:00.503Z,103660.99
2019-02-24T06:35:28.992Z,103659.66
2019-02-24T06:37:57.429Z,103662.88
2019-02-24T06:40:25.880Z,103654.15
2019-02-24T06:42:54.331Z,103654.07
2019-02-24T06:45:22.790Z,103653.38
2019-02-24T06:47:51.226Z,103641.84
2019-02-24T06:50:19.693Z,103642.80
2019-02-24T06:52:48.132Z,103644.61
2019-02-24T06:55:16.596Z,103649.95
2019-02-24T06:57:45.025Z,103660.59
2019-02-24T07:00:14.376Z,103656.09
2019-02-24T07:02:42.900Z,103644.08
2019-02-24T07:05:11.363Z,103635.12
2019-02-24T07:07:39.791Z,103628.02
2019-02-24T07:10:08.327Z,103627.82
2019-02-24T07:12:36.757Z,103619.14
2019-02-24T07:15:07.923Z,103621.46
2019-02-24T07:17:36.409Z,103621.59
2019-02-24T07:20:06.472Z,103630.09
2019-02-24T07:22:34.939Z,103643.21
2019-02-24T07:25:03.640Z,103655.45
2019-02-24T07:27:32.094Z,103643.56
2019-02-24T07:30:00.523Z,103647.83
2019-02-24T07:32:28.979Z,103640.47
2019-02-24T07:34:57.410Z,103639.66
2019-02-24T07:37:25.857Z,103632.28
2019-02-24T07:39:54.288Z,103641.98
2019-02-24T07:42:22.738Z,103641.30
2019-02-24T07:44:51.171Z,103636.91
2019-02-24T07:47:19.630Z,103630.17
2019-02-24T07:49:48.057Z,103632.67
2019-02-24T07:52:16.510Z,103647.80
2019-02-24T07:54:44.934Z,103642.95
2019-02-24T07:57:13.389Z,103642.74
2019-02-24T07:59:41.816Z,103648.55
2019-02-24T08:02:10.265Z,103651.28
2019-02-24T08:04:38.687Z,103656.70
2019-02-24T08:07:07.143Z,103657.91
2019-02-24T08:09:35.574Z,103659.50
2019-02-24T08:12:04.086Z,103660.86
2019-02-24T08:14:32.515Z,103656.97
2019-02-24T08:17:00.964Z,103662.56
2019-02-24T08:19:30.105Z,103668.30
2019-02-24T08:21:58.618Z,103673.36
2019-02-24T08:24:29.070Z,103683.45
2019-02-24T08:26:57.223Z,103678.08
2019-02-24T08:29:25.884Z,103669.36
2019-02-24T08:31:54.337Z,103673.17
2019-02-24T08:34:22.757Z,103673.02
2019-02-24T08:36:51.211Z,103679.22
2019-02-24T08:39:19.635Z,103692.62
2019-02-24T08:41:48.091Z,103690.73
2019-02-24T08:44:16.510Z,103691.34
2019-02-24T08:46:44.959Z,103693.56
2019-02-24T08:49:13.387Z,103693.16
2019-02-24T08:51:41.874Z,103694.70
2019-02-24T08:54:10.269Z,103692.29
2019-02-24T08:56:38.704Z,103687.01
2019-02-24T08:59:07.167Z,103687.38
2019-02-24T09:01:35.577Z,103681.48
2019-02-24T09:04:04.030Z,103690.83
2019-02-24T09:06:32.451Z,103682.60
2019-02-24T09:09:00.919Z,103683.83
2019-02-24T09:11:29.340Z,103690.73
2019-02-24T09:13:57.794Z,103687.19
2019-02-24T09:16:26.218Z,103687.71
2019-02-24T09:18:54.674Z,103691.63
2019-02-24T09:21:23.094Z,103696.86
2019-02-24T09:23:51.549Z,103696.47
2019-02-24T09:26:20.044Z,103691.88
2019-02-24T09:28:48.504Z,103685.41
2019-02-24T09:31:16.925Z,103679.48
2019-02-24T09:33:45.439Z,103673.73
2019-02-24T09:36:13.862Z,103659.11
2019-02-24T09:38:42.329Z,103669.64
2019-02-24T09:41:10.743Z,103669.64
2019-02-24T09:43:39.274Z,103671.35
2019-02-24T09:46:07.701Z,103679.39
2019-02-24T09:48:36.153Z,103677.44
2019-02-24T09:51:04.580Z,103673.84
2019-02-24T09:53:33.039Z,103688.63
2019-02-24T09:56:01.452Z,103688.63
2019-02-24T09:58:29.904Z,103679.29
2019-02-24T10:00:58.324Z,103681.05
2019-02-24T10:03:26.771Z,103681.05
2019-02-24T10:05:55.196Z,103683.13
2019-02-24T10:08:23.649Z,103686.34
2019-02-24T10:10:52.071Z,103686.34
2019-02-24T10:13:20.557Z,103683.88
2019-02-24T10:15:48.978Z,103678.25
2019-02-24T10:18:17.409Z,103684.23
2019-02-24T10:20:45.861Z,103665.70
2019-02-24T10:23:14.283Z,103665.70
2019-02-24T10:25:42.734Z,103665.58
2019-02-24T10:28:11.157Z,103665.58
2019-02-24T10:30:39.603Z,103664.97
2019-02-24T10:33:08.107Z,103672.77
2019-02-24T10:35:36.627Z,103680.77
2019-02-24T10:38:05.046Z,103676.38
2019-02-24T10:40:33.567Z,103671.72
2019-02-24T10:43:01.985Z,103676.09
2019-02-24T10:45:30.437Z,103668.83
2019-02-24T10:47:58.935Z,103666.88
2019-02-24T10:50:27.383Z,103666.33
2019-02-24T10:52:55.813Z,103670.44
2019-02-24T10:55:24.274Z,103671.08
2019-02-24T10:57:52.694Z,103672.94
2019-02-24T11:00:22.860Z,103666.52
2019-02-24T11:02:51.296Z,103665.67
2019-02-24T11:05:19.820Z,103665.48
2019-02-24T11:07:48.253Z,103673.31
2019-02-24T11:10:16.707Z,103665.88
2019-02-24T11:12:45.129Z,103660.92
2019-02-24T11:15:14.152Z,103654.84
2019-02-24T11:17:42.591Z,103641.41
2019-02-24T11:20:13.849Z,103635.53
2019-02-24T11:22:42.267Z,103642.41
2019-02-24T11:25:11.690Z,103647.18
2019-02-24T11:27:40.145Z,103653.34
2019-02-24T11:30:13.156Z,103645.59
2019-02-24T11:32:41.595Z,103637.56
2019-02-24T11:35:11.257Z,103642.84
2019-02-24T11:37:39.718Z,103652.22
2019-02-24T11:40:10.683Z,103650.08
2019-02-24T11:42:39.132Z,103637.21
2019-02-24T11:45:08.998Z,103644.52
2019-02-24T11:47:37.447Z,103635.43
2019-02-24T11:50:08.605Z,103630.11
2019-02-24T11:52:37.066Z,103628.39
2019-02-24T11:55:06.631Z,103616.95
2019-02-24T11:57:35.083Z,103616.17
2019-02-24T12:00:03.646Z,103617.98
2019-02-24T12:02:34.398Z,103629.42
2019-02-24T12:05:02.242Z,103625.23
2019-02-24T12:07:30.698Z,103621.38
2019-02-24T12:09:59.297Z,103613.74
2019-02-24T12:12:27.746Z,103616.64
2019-02-24T12:14:56.176Z,103614.50
2019-02-24T12:17:24.633Z,103614.57
2019-02-24T12:19:53.061Z,103600.31
2019-02-24T12:22:21.516Z,103600.90
2019-02-24T12:24:49.935Z,103601.36
2019-02-24T12:27:18.388Z,103603.31
2019-02-24T12:29:46.809Z,103608.74
2019-02-24T12:32:15.273Z,103602.41
2019-02-24T12:34:43.691Z,103609.27
2019-02-24T12:37:12.517Z,103598.78
2019-02-24T12:39:47.147Z,103584.78
2019-02-24T12:42:14.650Z,103591.30
2019-02-24T12:44:43.072Z,103587.00
2019-02-24T12:47:11.529Z,103585.09
2019-02-24T12:49:39.951Z,103581.84
2019-02-24T12:52:08.405Z,103582.63
2019-02-24T12:54:36.829Z,103581.36
2019-02-24T12:57:05.289Z,103574.44
2019-02-24T12:59:33.881Z,103577.70
2019-02-24T13:02:05.590Z,103573.55
2019-02-24T13:04:32.492Z,103574.44
2019-02-24T13:07:00.922Z,103574.34
2019-02-24T13:09:29.378Z,103577.66
2019-02-24T13:11:57.873Z,103570.52
2019-02-24T13:14:26.386Z,103569.74
2019-02-24T13:16:54.816Z,103568.47
2019-02-24T13:19:23.268Z,103576.52
2019-02-24T13:21:51.697Z,103584.83
2019-02-24T13:24:20.147Z,103571.87
2019-02-24T13:26:48.570Z,103572.16
2019-02-24T13:29:17.025Z,103579.75
2019-02-24T13:31:45.454Z,103572.59
2019-02-24T13:34:13.916Z,103574.63
2019-02-24T13:36:42.348Z,103576.05
2019-02-24T13:39:10.797Z,103584.84
2019-02-24T13:41:39.228Z,103585.30
2019-02-24T13:44:07.683Z,103588.39
2019-02-24T13:46:36.099Z,103578.86
2019-02-24T13:49:04.549Z,103573.61
2019-02-24T13:51:32.971Z,103566.19
2019-02-24T13:54:01.418Z,103572.45
2019-02-24T13:56:29.852Z,103567.14
2019-02-24T13:58:58.311Z,103568.70
2019-02-24T14:01:27.622Z,103567.78
2019-02-24T14:03:56.075Z,103568.87
2019-02-24T14:06:24.505Z,103557.75
2019-02-24T14:08:52.959Z,103562.66
2019-02-24T14:11:21.387Z,103557.47
2019-02-24T14:13:49.806Z,103551.98
2019-02-24T14:16:18.270Z,103558.64
2019-02-24T14:18:46.691Z,103562.36
2019-02-24T14:21:15.319Z,103561.78
2019-02-24T14:23:43.744Z,103557.48
2019-02-24T14:26:12.199Z,103553.28
2019-02-24T14:28:40.629Z,103550.34
2019-02-24T14:31:09.082Z,103551.14
2019-02-24T14:33:37.581Z,103547.27
2019-02-24T14:36:06.037Z,103547.89
2019-02-24T14:38:34.457Z,103556.26
2019-02-24T14:41:02.912Z,103555.69
2019-02-24T14:43:31.344Z,103561.51
2019-02-24T14:45:59.804Z,103545.72
2019-02-24T14:48:28.225Z,103548.73
2019-02-24T14:50:56.678Z,103554.36
2019-02-24T14:53:25.101Z,103555.96
2019-02-24T14:55:53.626Z,103558.70
2019-02-24T14:58:22.067Z,103556.95
2019-02-24T15:00:50.598Z,103556.52
2019-02-24T15:03:19.030Z,103556.95
2019-02-24T15:05:47.491Z,103559.74
2019-02-24T15:08:15.923Z,103559.03
2019-02-24T15:10:44.375Z,103551.89
2019-02-24T15:13:12.797Z,103557.64
2019-02-24T15:15:41.264Z,103568.66
2019-02-24T15:18:09.698Z,103565.61
2019-02-24T15:20:38.224Z,103556.00
2019-02-24T15:23:06.918Z,103559.78
2019-02-24T15:25:35.374Z,103559.08
2019-02-24T15:28:03.872Z,103557.75
2019-02-24T15:30:36.477Z,103559.03
2019-02-24T15:33:04.970Z,103556.92
2019-02-24T15:35:33.412Z,103557.27
2019-02-24T15:38:01.842Z,103553.50
2019-02-24T15:40:30.363Z,103549.70
2019-02-24T15:42:58.788Z,103557.33
2019-02-24T15:45:27.210Z,103558.98
2019-02-24T15:47:55.663Z,103558.80
2019-02-24T15:50:24.076Z,103556.98
2019-02-24T15:52:52.521Z,103558.87
2019-02-24T15:55:20.944Z,103570.71
2019-02-24T15:57:49.390Z,103577.39
2019-02-24T16:00:20.317Z,103580.37
2019-02-24T16:02:48.754Z,103575.93
2019-02-24T16:05:17.244Z,103570.89
2019-02-24T16:07:45.688Z,103568.58
2019-02-24T16:10:18.771Z,103575.34
2019-02-24T16:12:47.215Z,103564.09
2019-02-24T16:15:17.278Z,103568.23
2019-02-24T16:17:45.721Z,103572.75
2019-02-24T16:20:28.480Z,103576.27
2019-02-24T16:22:56.923Z,103578.15
2019-02-24T16:25:25.412Z,103571.44
2019-02-24T16:27:55.206Z,103565.02
2019-02-24T16:30:23.671Z,103558.56
2019-02-24T16:32:52.122Z,103563.28
2019-02-24T16:35:20.535Z,103564.30
2019-02-24T16:37:48.992Z,103561.20
2019-02-24T16:40:30.752Z,103562.64
2019-02-24T16:42:59.191Z,103568.41
2019-02-24T16:45:27.679Z,103565.08
2019-02-24T16:47:56.124Z,103564.67
2019-02-24T16:50:25.084Z,103559.37
2019-02-24T16:52:53.795Z,103553.70
2019-02-24T16:55:22.281Z,103560.41
2019-02-24T16:57:50.723Z,103560.09
2019-02-24T17:00:21.350Z,103559.95
2019-02-24T17:02:49.860Z,103555.83
2019-02-24T17:05:18.414Z,103559.08
2019-02-24T17:07:46.860Z,103565.17
2019-02-24T17:10:24.270Z,103567.59
2019-02-24T17:12:52.719Z,103577.10
2019-02-24T17:15:21.153Z,103584.85
2019-02-24T17:17:49.597Z,103591.38
2019-02-24T17:20:20.163Z,103599.45
2019-02-24T17:22:48.585Z,103595.81
2019-02-24T17:25:17.167Z,103590.38
2019-02-24T17:27:45.867Z,103596.55
2019-02-24T17:30:16.023Z,103599.73
2019-02-24T17:32:44.583Z,103600.38
2019-02-24T17:35:13.666Z,103604.25
2019-02-24T17:37:42.163Z,103603.41
2019-02-24T17:40:12.849Z,103594.67
2019-02-24T17:42:41.357Z,103597.38
2019-02-24T17:45:11.837Z,103588.16
2019-02-24T17:47:40.262Z,103598.25
2019-02-24T17:50:13.068Z,103595.31
2019-02-24T17:52:41.560Z,103597.94
2019-02-24T17:55:12.257Z,103589.59
2019-02-24T17:57:40.683Z,103589.59
2019-02-24T18:00:22.091Z,103601.12
2019-02-24T18:02:50.579Z,103595.08
2019-02-24T18:05:19.112Z,103606.99
2019-02-24T18:07:47.542Z,103614.25
2019-02-24T18:10:16.068Z,103614.16
2019-02-24T18:12:44.486Z,103611.04
2019-02-24T18:15:13.417Z,103618.22
2019-02-24T18:17:41.965Z,103616.36
2019-02-24T18:20:19.229Z,103616.36
2019-02-24T18:22:47.778Z,103623.97
2019-02-24T18:25:16.492Z,103625.81
2019-02-24T18:27:44.894Z,103627.70
2019-02-24T18:30:27.937Z,103627.70
2019-02-24T18:32:56.365Z,103626.56
2019-02-24T18:35:24.876Z,103633.37
2019-02-24T18:37:53.305Z,103623.89
2019-02-24T18:40:21.837Z,103627.50
2019-02-24T18:42:59.403Z,103627.50
2019-02-24T18:45:20.498Z,103632.91
2019-02-24T18:47:49.791Z,103626.67
2019-02-24T18:50:19.678Z,103624.15
2019-02-24T18:52:48.100Z,103624.15
2019-02-24T18:55:16.624Z,103626.09
2019-02-24T18:57:45.043Z,103614.05
2019-02-24T19:00:16.109Z,103618.06
2019-02-24T19:02:44.529Z,103622.11
2019-02-24T19:05:13.088Z,103622.11
2019-02-24T19:07:41.678Z,103622.17
2019-02-24T19:10:15.334Z,103622.17
2019-02-24T19:12:43.862Z,103622.47
2019-02-24T19:15:14.834Z,103632.14
2019-02-24T19:17:43.294Z,103629.48
2019-02-24T19:20:22.550Z,103628.41
2019-02-24T19:22:51.079Z,103624.20
2019-02-24T19:25:19.499Z,103628.73
2019-02-24T19:27:48.031Z,103635.33
2019-02-24T19:30:17.583Z,103637.90
2019-02-24T19:32:46.106Z,103636.45
2019-02-24T19:35:15.871Z,103645.25
2019-02-24T19:37:44.389Z,103645.09
2019-02-24T19:40:15.060Z,103639.63
2019-02-24T19:42:43.508Z,103644.42
2019-02-24T19:45:14.968Z,103651.43
2019-02-24T19:47:43.493Z,103656.27
2019-02-24T19:50:19.133Z,103653.41
2019-02-24T19:52:47.588Z,103656.69
2019-02-24T19:55:17.148Z,103649.69
2019-02-24T19:57:45.682Z,103655.80
2019-02-24T20:00:19.127Z,103651.42
2019-02-24T20:02:47.713Z,103641.12
2019-02-24T20:05:16.305Z,103651.52
2019-02-24T20:07:44.756Z,103650.44
2019-02-24T20:10:26.923Z,103650.91
2019-02-24T20:12:55.383Z,103649.48
2019-02-24T20:15:23.879Z,103646.41
2019-02-24T20:17:52.390Z,103647.28
2019-02-24T20:20:20.886Z,103656.08
2019-02-24T20:22:49.327Z,103656.28
2019-02-24T20:25:22.724Z,103659.84
2019-02-24T20:27:51.181Z,103659.70
2019-02-24T20:30:30.440Z,103652.57
2019-02-24T20:32:58.887Z,103650.11
2019-02-24T20:35:27.315Z,103645.38
2019-02-24T20:37:55.829Z,103649.42
2019-02-24T20:40:24.248Z,103666.67
2019-02-24T20:42:52.699Z,103662.39
2019-02-24T20:45:22.290Z,103665.20
2019-02-24T20:47:50.788Z,103661.66
2019-02-24T20:50:27.469Z,103662.39
2019-02-24T20:52:55.935Z,103662.57
2019-02-24T20:55:24.344Z,103664.89
2019-02-24T20:57:52.787Z,103662.73
2019-02-24T21:00:30.041Z,103661.85
2019-02-24T21:02:58.492Z,103658.61
2019-02-24T21:05:27.058Z,103669.02
2019-02-24T21:07:55.511Z,103660.19
2019-02-24T21:10:24.073Z,103666.24
2019-02-24T21:12:52.519Z,103670.78
2019-02-24T21:15:20.967Z,103666.25
2019-02-24T21:17:49.481Z,103673.70
2019-02-24T21:20:23.440Z,103674.52
2019-02-24T21:22:51.959Z,103668.84
2019-02-24T21:25:20.384Z,103665.06
2019-02-24T21:27:48.839Z,103666.45
2019-02-24T21:30:20.412Z,103668.30
2019-02-24T21:32:48.860Z,103673.09
2019-02-24T21:35:17.693Z,103671.48
2019-02-24T21:37:46.145Z,103669.88
2019-02-24T21:40:18.758Z,103663.67
2019-02-24T21:42:47.243Z,103660.58
2019-02-24T21:45:20.622Z,103662.23
2019-02-24T21:47:49.039Z,103653.42
2019-02-24T21:50:17.859Z,103655.86
2019-02-24T21:52:46.363Z,103647.14
2019-02-24T21:55:14.879Z,103645.84
2019-02-24T21:57:43.306Z,103656.70
2019-02-24T22:00:26.228Z,103653.36
2019-02-24T22:02:54.815Z,103658.88
2019-02-24T22:05:23.256Z,103658.61
2019-02-24T22:07:51.687Z,103672.31
2019-02-24T22:10:20.213Z,103670.84
2019-02-24T22:12:48.704Z,103672.91
2019-02-24T22:15:25.572Z,103666.49
2019-02-24T22:17:54.064Z,103649.81
2019-02-24T22:20:22.512Z,103647.67
2019-02-24T22:22:50.999Z,103640.27
2019-02-24T22:25:19.521Z,103644.50
2019-02-24T22:27:48.014Z,103641.20
2019-02-24T22:30:18.214Z,103649.41
2019-02-24T22:32:46.630Z,103642.72
2019-02-24T22:35:15.156Z,103637.34
2019-02-24T22:37:43.583Z,103639.43
2019-02-24T22:40:13.275Z,103643.95
2019-02-24T22:42:41.763Z,103644.09
2019-02-24T22:45:13.239Z,103640.27
2019-02-24T22:47:41.935Z,103633.83
2019-02-24T22:50:10.857Z,103626.63
2019-02-24T22:52:39.369Z,103629.11
2019-02-24T22:55:10.729Z,103618.45
2019-02-24T22:57:39.146Z,103622.08
2019-02-24T23:00:19.781Z,103623.55
2019-02-24T23:02:48.208Z,103623.45
2019-02-24T23:05:16.800Z,103623.88
2019-02-24T23:07:45.230Z,103620.56
2019-02-24T23:10:13.707Z,103616.00
2019-02-24T23:12:42.208Z,103616.29
2019-02-24T23:15:10.699Z,103619.34
2019-02-24T23:17:39.153Z,103617.59
2019-02-24T23:20:08.917Z,103618.38
2019-02-24T23:22:37.372Z,103624.57
2019-02-24T23:25:06.069Z,103628.59
2019-02-24T23:27:34.609Z,103623.70
2019-02-24T23:30:03.039Z,103627.25
2019-02-24T23:32:31.509Z,103624.14
2019-02-24T23:34:59.934Z,103622.33
2019-02-24T23:37:28.398Z,103615.75
2019-02-24T23:39:56.817Z,103623.40
2019-02-24T23:42:25.343Z,103615.83
2019-02-24T23:44:53.768Z,103623.36
2019-02-24T23:47:22.282Z,103623.08
2019-02-24T23:49:50.721Z,103625.88
2019-02-24T23:52:19.173Z,103631.84
2019-02-24T23:54:47.598Z,103630.66
2019-02-24T23:57:16.050Z,103630.39
2019-02-24T23:59:44.488Z,103625.84
